Time;durP1;ratioP1;P1;durP2;ratioP2;P2;SDS_P1;SDS_P2;PMS_P1;PMS_P2;Temp;Humidity;BMP_temperature;BMP_pressure;BME280_temperature;BME280_humidity;BME280_pressure;Samples;Min_cycle;Max_cycle;Signal;HPM_P1;HPM_P2
2022/11/29 00:01:18;;;;;;;11.93;4.85;;;;;;;-3.03;65.37;102453.75;6136880;23;20025;-81
2022/11/29 00:03:44;;;;;;;10.15;4.78;;;;;;;-2.77;66.29;102461.91;6161081;23;20072;-79
2022/11/29 00:06:13;;;;;;;8.95;4.97;;;;;;;-3.12;65.23;102401.09;6156991;23;20021;-79
2022/11/29 00:08:40;;;;;;;13.27;6.00;;;;;;;-2.93;65.67;102459.66;6155023;23;20025;-77
2022/11/29 00:11:12;;;;;;;12.15;5.72;;;;;;;-3.25;65.37;102425.47;6105346;23;20021;-78
2022/11/29 00:13:38;;;;;;;;;;;;;;;-2.99;65.44;102457.47;6136126;23;20403;-81
2022/11/29 00:16:10;;;;;;;9.40;5.40;;;;;;;-3.00;65.97;102463.31;6130589;23;19995;-79
2022/11/29 00:18:36;;;;;;;;;;;;;;;-3.05;65.50;102452.72;6082957;23;20017;-81
2022/11/29 00:21:06;;;;;;;11.65;5.40;;;;;;;-3.25;65.67;102453.47;6154821;23;20231;-81
2022/11/29 00:23:33;;;;;;;13.27;6.68;;;;;;;-3.38;66.19;102438.75;6130132;23;20076;-79
2022/11/29 00:26:04;;;;;;;13.07;6.70;;;;;;;-3.29;65.77;102468.34;6156607;23;20080;-79
2022/11/29 00:28:30;;;;;;;15.98;6.60;;;;;;;-3.27;65.75;102460.09;6132438;23;20025;-78
2022/11/29 00:30:56;;;;;;;12.15;5.85;;;;;;;-3.35;66.54;102433.06;6162203;23;20021;-78
2022/11/29 00:33:24;;;;;;;14.00;7.30;;;;;;;-3.03;66.95;102468.13;6161301;23;20351;-80
2022/11/29 00:35:50;;;;;;;11.50;6.53;;;;;;;-3.16;66.13;102435.56;6158833;23;20045;-82
2022/11/29 00:38:16;;;;;;;15.25;7.20;;;;;;;-3.16;65.73;102455.06;6157705;23;20020;-80
2022/11/29 00:40:42;;;;;;;12.43;6.60;;;;;;;-3.28;65.54;102452.31;6131866;23;20068;-79
2022/11/29 00:43:09;;;;;;;12.32;6.63;;;;;;;-3.36;65.59;102434.69;6156454;23;20093;-80
2022/11/29 00:45:35;;;;;;;11.65;6.00;;;;;;;-3.14;66.23;102456.97;6156227;23;20024;-79
2022/11/29 00:48:01;;;;;;;14.07;7.10;;;;;;;-3.13;65.46;102458.78;6157104;23;20025;-80
2022/11/29 00:50:27;;;;;;;13.82;6.70;;;;;;;-3.18;66.59;102449.81;6130901;23;20018;-78
2022/11/29 00:52:52;;;;;;;13.65;6.80;;;;;;;-3.21;67.22;102424.09;6156931;23;20024;-80
2022/11/29 00:55:18;;;;;;;12.10;5.68;;;;;;;-3.00;66.78;102442.94;6131539;23;20020;-80
2022/11/29 00:57:45;;;;;;;14.80;6.20;;;;;;;-3.30;65.39;102410.53;6155271;23;20096;-79
2022/11/29 01:00:12;;;;;;;13.65;6.85;;;;;;;-3.12;65.88;102455.47;6106837;23;20021;-80
2022/11/29 01:02:38;;;;;;;11.75;6.22;;;;;;;-3.19;66.48;102438.75;6156766;23;20021;-82
2022/11/29 01:05:04;;;;;;;16.20;7.35;;;;;;;-3.34;65.66;102430.63;6157010;23;20115;-78
2022/11/29 01:07:30;;;;;;;14.55;7.15;;;;;;;-3.43;66.19;102422.19;6154978;23;20021;-81
2022/11/29 01:09:56;;;;;;;14.43;7.35;;;;;;;-3.24;67.01;102444.19;6130293;23;20344;-79
2022/11/29 01:12:22;;;;;;;12.07;5.63;;;;;;;-3.34;66.09;102433.16;6157721;23;20021;-80
2022/11/29 01:14:48;;;;;;;12.68;7.07;;;;;;;-3.32;66.34;102448.63;6156317;23;20091;-78
2022/11/29 01:17:14;;;;;;;15.95;6.18;;;;;;;-3.53;66.25;102430.63;6155140;23;20020;-82
2022/11/29 01:19:40;;;;;;;15.27;7.13;;;;;;;-3.64;66.66;102421.13;6156773;23;20043;-82
2022/11/29 01:22:06;;;;;;;13.70;6.70;;;;;;;-3.43;66.57;102436.53;6131854;23;20045;-79
2022/11/29 01:24:32;;;;;;;12.13;6.70;;;;;;;-3.48;66.40;102428.50;6157270;23;20027;-79
2022/11/29 01:26:58;;;;;;;14.52;7.05;;;;;;;-3.61;66.51;102421.41;6172996;23;20053;-79
2022/11/29 01:29:24;;;;;;;11.55;5.97;;;;;;;-3.39;66.08;102447.13;6132071;23;20001;-79
2022/11/29 01:31:50;;;;;;;13.20;6.43;;;;;;;-3.40;67.09;102430.06;6155155;23;20078;-80
2022/11/29 01:34:16;;;;;;;11.50;6.72;;;;;;;-3.43;66.47;102455.28;6157832;23;20028;-78
2022/11/29 01:36:42;;;;;;;12.20;6.18;;;;;;;-3.90;65.69;102403.50;6131513;23;20013;-80
2022/11/29 01:39:08;;;;;;;11.35;6.03;;;;;;;-3.68;66.69;102447.97;6156733;23;20100;-81
2022/11/29 01:41:36;;;;;;;10.82;6.20;;;;;;;-3.65;66.98;102445.69;6133202;23;20048;-80
2022/11/29 01:44:04;;;;;;;11.57;5.30;;;;;;;-3.53;66.82;102453.53;6134633;23;20022;-79
2022/11/29 01:46:36;;;;;;;12.05;6.72;;;;;;;-3.80;66.96;102434.09;6157917;23;20359;-81
2022/11/29 01:49:10;;;;;;;11.07;5.82;;;;;;;-3.56;67.54;102449.81;6130177;23;20475;-79
2022/11/29 01:51:39;;;;;;;11.43;6.25;;;;;;;-3.64;66.96;102456.75;6155723;23;20017;-80
2022/11/29 01:54:08;;;;;;;11.85;6.28;;;;;;;-3.77;66.50;102436.94;6156259;23;20447;-80
2022/11/29 01:56:35;;;;;;;12.85;6.18;;;;;;;-3.66;66.61;102464.28;6154766;23;20049;-79
2022/11/29 01:59:07;;;;;;;11.18;5.95;;;;;;;-3.80;66.71;102431.56;6130566;23;20021;-79
2022/11/29 02:01:34;;;;;;;13.68;6.68;;;;;;;-3.70;66.93;102454.56;6130936;23;20025;-79
2022/11/29 02:04:01;;;;;;;12.57;6.47;;;;;;;-3.71;67.35;102437.50;6156146;23;20096;-80
2022/11/29 02:06:28;;;;;;;11.10;6.05;;;;;;;-3.56;66.89;102453.28;6130379;23;20021;-79
2022/11/29 02:08:55;;;;;;;10.63;5.25;;;;;;;-3.58;66.98;102464.06;6130453;23;20040;-80
2022/11/29 02:11:36;;;;;;;10.95;6.10;;;;;;;-3.54;66.88;102461.94;6156116;23;20021;-80
2022/11/29 02:14:17;;;;;;;11.98;6.18;;;;;;;-3.65;67.51;102452.41;6156682;23;20017;-79
2022/11/29 02:17:07;;;;;;;10.75;5.78;;;;;;;-3.57;66.01;102465.84;6081628;23;20033;-81
2022/11/29 02:20:36;;;;;;;14.07;6.38;;;;;;;-3.57;66.98;102465.84;6133869;23;20488;-80
2022/11/29 02:23:21;;;;;;;12.93;5.50;;;;;;;-3.59;65.37;102468.25;6130318;23;20372;-80
2022/11/29 02:25:56;;;;;;;12.43;5.72;;;;;;;-3.77;66.77;102442.00;6155681;23;20133;-79
2022/11/29 02:28:31;;;;;;;11.15;5.07;;;;;;;-3.68;65.70;102463.22;6129338;23;20156;-79
2022/11/29 02:31:29;;;;;;;12.10;5.30;;;;;;;-3.81;66.13;102462.84;6129502;23;20017;-79
2022/11/29 02:34:04;;;;;;;10.05;5.20;;;;;;;-3.82;65.93;102473.78;6155247;23;20101;-80
2022/11/29 02:37:03;;;;;;;10.50;5.65;;;;;;;-4.11;65.24;102426.22;6105160;23;20370;-80
2022/11/29 02:39:51;;;;;;;10.90;6.00;;;;;;;-3.84;66.23;102460.00;6130086;23;20044;-79
2022/11/29 02:42:47;;;;;;;12.23;6.00;;;;;;;-3.70;66.26;102464.75;6156058;23;20395;-79
2022/11/29 02:45:22;;;;;;;12.23;4.93;;;;;;;-3.67;65.94;102459.94;6105557;23;20018;-80
2022/11/29 02:48:14;;;;;;;9.32;4.88;;;;;;;-3.69;65.94;102458.91;6129755;23;20067;-79
2022/11/29 02:51:03;;;;;;;11.13;5.55;;;;;;;-3.80;66.23;102445.19;6129846;23;20036;-79
2022/11/29 02:53:37;;;;;;;11.75;6.10;;;;;;;-4.02;65.79;102413.44;6154657;23;20024;-78
2022/11/29 02:56:03;;;;;;;11.43;6.28;;;;;;;-3.80;65.53;102472.28;6155704;23;20095;-78
2022/11/29 02:58:47;;;;;;;11.30;5.30;;;;;;;-3.89;65.73;102461.25;6141029;23;20018;-78
2022/11/29 03:01:45;;;;;;;9.73;5.35;;;;;;;-3.78;65.67;102478.41;6129775;23;20021;-80
2022/11/29 03:04:27;;;;;;;12.25;6.07;;;;;;;-3.69;65.64;102480.88;6158649;23;20017;-80
2022/11/29 03:08:02;;;;;;;13.15;5.88;;;;;;;-3.74;65.07;102474.47;6157632;23;20161;-79
2022/11/29 03:10:52;;;;;;;13.70;6.85;;;;;;;-3.84;65.25;102470.19;6007908;23;20026;-81
2022/11/29 03:13:26;;;;;;;12.93;5.93;;;;;;;-4.01;65.17;102458.47;6019635;23;20390;-79
2022/11/29 03:16:06;;;;;;;10.00;5.93;;;;;;;-3.89;65.72;102476.53;6147834;23;20075;-82
2022/11/29 03:18:54;;;;;;;11.65;5.47;;;;;;;-3.98;64.80;102454.56;6155982;23;20448;-80
2022/11/29 03:21:21;;;;;;;9.88;5.55;;;;;;;-3.84;65.02;102480.38;6158843;23;20075;-80
2022/11/29 03:23:53;;;;;;;8.27;4.90;;;;;;;-4.03;63.88;102478.66;6159765;23;20478;-82
2022/11/29 03:26:34;;;;;;;12.77;6.22;;;;;;;-4.11;65.33;102472.00;6158852;23;20077;-79
2022/11/29 03:29:14;;;;;;;13.40;6.78;;;;;;;-4.15;64.60;102472.44;6109321;23;20455;-79
2022/11/29 03:31:54;;;;;;;14.50;6.85;;;;;;;-4.23;65.07;102456.47;6085457;23;20346;-79
2022/11/29 03:34:41;;;;;;;13.95;7.15;;;;;;;-4.15;65.19;102437.72;6160608;23;20021;-79
2022/11/29 03:37:24;;;;;;;13.55;6.80;;;;;;;-4.09;64.44;102473.91;6161979;23;20021;-79
2022/11/29 03:40:06;;;;;;;11.52;6.53;;;;;;;-4.19;64.91;102467.81;6135056;23;20356;-77
2022/11/29 03:42:36;;;;;;;10.40;6.22;;;;;;;-4.30;64.80;102476.97;6142925;23;20053;-78
2022/11/29 03:45:17;;;;;;;13.88;6.88;;;;;;;-4.15;65.07;102468.25;6178499;23;20022;-79
2022/11/29 03:47:50;;;;;;;11.57;6.22;;;;;;;-4.13;65.00;102468.41;6153759;23;20048;-79
2022/11/29 03:50:23;;;;;;;14.77;6.47;;;;;;;-4.07;64.78;102473.16;6154189;23;20048;-78
2022/11/29 03:52:54;;;;;;;10.90;5.45;;;;;;;-3.97;64.69;102486.88;6153449;23;20021;-79
2022/11/29 03:55:19;;;;;;;10.20;5.40;;;;;;;-4.11;64.00;102502.50;6152438;23;20041;-81
2022/11/29 03:57:54;;;;;;;10.30;5.45;;;;;;;-4.14;64.19;102500.56;6094389;23;20017;-81
2022/11/29 04:00:21;;;;;;;10.82;5.72;;;;;;;-4.27;63.93;102479.81;6132812;23;20028;-79
2022/11/29 04:03:30;;;;;;;10.13;5.65;;;;;;;-4.12;64.34;102493.97;6136591;23;20016;-80
2022/11/29 04:06:04;;;;;;;9.80;5.05;;;;;;;-4.07;64.10;102496.06;6071050;23;20364;-80
2022/11/29 04:08:48;;;;;;;9.10;5.32;;;;;;;-4.16;64.11;102501.19;6152271;23;20024;-81
2022/11/29 04:11:33;;;;;;;11.82;5.45;;;;;;;-4.29;64.04;102511.84;6137766;23;20094;-80
2022/11/29 04:14:26;;;;;;;11.02;5.95;;;;;;;-4.25;64.29;102511.38;6143900;23;20036;-80
2022/11/29 04:17:07;;;;;;;11.40;5.45;;;;;;;-4.24;63.90;102506.44;6138339;23;20021;-80
2022/11/29 04:20:12;;;;;;;10.68;5.57;;;;;;;-4.25;64.00;102512.25;6130730;23;20017;-78
2022/11/29 04:23:05;;;;;;;11.68;5.35;;;;;;;-4.25;64.17;102506.28;6114994;23;20056;-80
2022/11/29 04:25:59;;;;;;;12.00;5.72;;;;;;;-4.15;63.85;102495.34;6132503;23;20025;-81
2022/11/29 04:28:46;;;;;;;10.70;6.05;;;;;;;-4.04;63.43;102496.34;6135578;23;20024;-82
2022/11/29 04:31:19;;;;;;;12.13;6.85;;;;;;;-3.89;64.28;102494.34;6164706;23;20024;-81
2022/11/29 04:34:04;;;;;;;10.85;5.82;;;;;;;-3.76;63.75;102488.75;6159806;23;20025;-82
2022/11/29 04:37:08;;;;;;;13.07;6.72;;;;;;;-3.79;63.06;102492.78;6158825;23;20460;-82
2022/11/29 04:39:46;;;;;;;16.48;6.47;;;;;;;-3.99;63.01;102490.94;6072563;23;20023;-82
2022/11/29 04:42:30;;;;;;;15.32;6.85;;;;;;;-4.17;62.67;102495.19;6152870;23;20084;-81
2022/11/29 04:44:59;;;;;;;11.07;6.40;;;;;;;-4.25;62.97;102502.09;6112186;23;20020;-80
2022/11/29 04:48:09;;;;;;;14.00;7.00;;;;;;;-4.13;63.25;102501.47;6084848;23;20049;-81
2022/11/29 04:51:13;;;;;;;14.38;7.28;;;;;;;-4.22;63.31;102503.13;6078300;23;20033;-80
2022/11/29 04:53:45;;;;;;;14.07;7.10;;;;;;;-4.16;63.40;102511.34;6135682;23;20021;-81
2022/11/29 04:56:28;;;;;;;13.10;7.18;;;;;;;-4.33;63.26;102504.66;6129471;23;20021;-81
2022/11/29 04:59:12;;;;;;;14.23;7.28;;;;;;;-4.60;63.57;102488.56;6156472;23;20017;-80
2022/11/29 05:02:21;;;;;;;17.30;8.20;;;;;;;-4.76;62.99;102497.28;6106597;23;20017;-81
2022/11/29 05:05:23;;;;;;;14.27;7.82;;;;;;;-4.52;64.22;102530.00;6118109;23;20021;-79
2022/11/29 05:08:10;;;;;;;19.30;8.25;;;;;;;-4.51;63.58;102539.38;6135253;23;20013;-79
2022/11/29 05:10:55;;;;;;;16.30;8.57;;;;;;;-4.42;63.91;102542.81;6159166;23;20088;-79
2022/11/29 05:13:38;;;;;;;17.88;7.95;;;;;;;-4.49;63.93;102546.44;6133709;23;20021;-80
2022/11/29 05:16:19;;;;;;;15.10;7.28;;;;;;;-4.36;63.44;102550.13;6130429;23;20428;-81
2022/11/29 05:19:10;;;;;;;12.07;6.25;;;;;;;-4.77;63.44;102507.31;6156625;23;20041;-80
2022/11/29 05:22:14;;;;;;;11.93;6.57;;;;;;;-4.57;63.98;102558.41;6131529;23;20044;-81
2022/11/29 05:25:12;;;;;;;14.35;7.45;;;;;;;-4.73;63.33;102547.47;6157625;23;20121;-79
2022/11/29 05:28:14;;;;;;;15.43;7.55;;;;;;;-4.78;63.85;102519.09;6147409;23;20021;-80
2022/11/29 05:30:52;;;;;;;14.57;6.88;;;;;;;-4.54;63.33;102573.03;6130589;23;20477;-79
2022/11/29 05:33:47;;;;;;;15.35;7.70;;;;;;;-4.48;63.09;102557.47;6107046;23;20428;-80
2022/11/29 05:36:16;;;;;;;17.52;9.27;;;;;;;-4.64;63.08;102573.81;6156847;23;20013;-80
2022/11/29 05:38:59;;;;;;;18.38;9.27;;;;;;;-4.72;62.75;102587.38;6131112;23;20028;-79
2022/11/29 05:41:42;;;;;;;23.02;10.77;;;;;;;-4.68;63.60;102576.78;6131255;23;20017;-80
2022/11/29 05:44:24;;;;;;;22.45;11.45;;;;;;;-4.63;63.62;102580.69;6106736;23;20332;-82
2022/11/29 05:46:54;;;;;;;;;;;;;;;-4.69;62.92;102580.06;6106427;23;20144;-81
2022/11/29 05:49:43;;;;;;;16.58;8.70;;;;;;;-4.71;64.19;102554.53;6131452;23;19923;-81
2022/11/29 05:52:21;;;;;;;19.58;9.25;;;;;;;-4.55;63.77;102583.97;6158066;23;20021;-79
2022/11/29 05:55:09;;;;;;;18.42;9.45;;;;;;;-4.67;63.33;102585.31;6109055;23;20403;-80
2022/11/29 05:57:58;;;;;;;21.92;9.35;;;;;;;-4.86;62.56;102571.72;6159397;23;20033;-80
2022/11/29 06:00:59;;;;;;;16.80;9.10;;;;;;;-5.05;62.92;102560.50;6131324;23;20463;-79
2022/11/29 06:03:52;;;;;;;16.90;9.45;;;;;;;-5.10;62.23;102557.50;6130355;23;20031;-80
2022/11/29 06:06:43;;;;;;;22.73;9.05;;;;;;;-5.04;63.99;102554.66;6156196;23;20100;-78
2022/11/29 06:09:32;;;;;;;17.58;9.20;;;;;;;-4.82;62.07;102585.59;6084383;23;20036;-80
2022/11/29 06:12:15;;;;;;;17.75;8.27;;;;;;;-5.02;63.41;102597.25;6158078;23;20024;-80
2022/11/29 06:14:55;;;;;;;18.58;9.98;;;;;;;-5.45;63.64;102542.19;6086753;23;20340;-81
2022/11/29 06:17:28;;;;;;;20.42;9.80;;;;;;;-5.05;63.26;102590.97;6084460;23;20021;-81
2022/11/29 06:20:41;;;;;;;21.95;9.10;;;;;;;-4.91;64.17;102585.59;6086268;23;20021;-81
2022/11/29 06:23:23;;;;;;;20.65;9.05;;;;;;;-4.57;63.73;102604.16;6082828;23;20184;-80
2022/11/29 06:26:22;;;;;;;19.08;9.05;;;;;;;-4.54;63.32;102603.56;6135807;23;20021;-80
2022/11/29 06:29:00;;;;;;;20.50;8.20;;;;;;;-5.00;62.75;102549.16;6157970;23;20116;-81
2022/11/29 06:31:43;;;;;;;18.90;9.07;;;;;;;-5.39;63.27;102481.88;6109857;23;20024;-82
2022/11/29 06:34:20;;;;;;;18.63;8.88;;;;;;;-4.76;63.00;102560.78;6085569;23;20049;-79
2022/11/29 06:36:56;;;;;;;18.73;7.95;;;;;;;-4.46;62.38;102615.38;6109598;23;20021;-83
2022/11/29 06:39:22;;;;;;;18.55;8.50;;;;;;;-4.85;62.08;102604.00;6140767;23;20044;-79
2022/11/29 06:41:48;;;;;;;10.85;6.28;;;;;;;-5.05;61.85;102593.50;6168921;23;20486;-83
2022/11/29 06:44:14;;;;;;;17.15;7.55;;;;;;;-4.96;62.15;102624.88;6162485;23;20017;-79
2022/11/29 06:47:08;;;;;;;15.40;7.93;;;;;;;-4.72;63.67;102625.50;6136789;23;20478;-79
2022/11/29 06:49:42;;;;;;;15.65;7.63;;;;;;;-4.80;62.28;102608.63;6158768;23;20064;-82
2022/11/29 06:52:49;;;;;;;12.27;6.25;;;;;;;-4.73;62.52;102626.25;6158346;23;20080;-80
2022/11/29 06:55:27;;;;;;;13.20;6.90;;;;;;;-4.93;62.52;102625.19;6144765;23;20025;-80
2022/11/29 06:58:28;;;;;;;13.88;6.80;;;;;;;-4.69;63.45;102625.81;6161180;23;20092;-81
2022/11/29 07:00:54;;;;;;;14.73;6.80;;;;;;;-4.67;62.59;102631.94;6106361;23;20085;-82
2022/11/29 07:03:42;;;;;;;12.13;5.78;;;;;;;-4.88;61.58;102626.56;6109516;23;20013;-83
2022/11/29 07:06:28;;;;;;;12.43;6.93;;;;;;;-5.15;62.47;102590.03;6134011;23;20344;-80
2022/11/29 07:09:24;;;;;;;15.82;6.75;;;;;;;-4.83;62.87;102624.47;6132159;23;20020;-81
2022/11/29 07:11:50;;;;;;;10.88;5.60;;;;;;;-5.20;62.59;102559.88;6156146;23;20081;-80
2022/11/29 07:14:17;;;;;;;12.73;5.57;;;;;;;-4.88;62.32;102606.22;6158486;23;20017;-80
2022/11/29 07:17:26;;;;;;;12.27;6.50;;;;;;;-4.88;62.83;102629.09;6131767;23;20021;-79
2022/11/29 07:20:20;;;;;;;10.85;5.80;;;;;;;-5.28;62.17;102581.97;6105159;23;20032;-83
2022/11/29 07:23:08;;;;;;;14.40;6.65;;;;;;;-5.11;61.77;102636.06;6134469;23;20467;-79
2022/11/29 07:26:18;;;;;;;14.07;6.55;;;;;;;-5.16;62.78;102631.41;6159887;23;20024;-81
2022/11/29 07:29:17;;;;;;;14.45;7.00;;;;;;;-5.01;62.57;102624.44;6131900;23;20158;-80
2022/11/29 07:32:13;;;;;;;12.43;6.70;;;;;;;-5.55;61.28;102563.22;6156738;23;20051;-80
2022/11/29 07:35:02;;;;;;;13.68;6.88;;;;;;;-5.26;62.54;102599.88;6139590;23;20087;-81
2022/11/29 07:37:40;;;;;;;12.50;6.28;;;;;;;-5.20;61.87;102610.66;6167971;23;20072;-80
2022/11/29 07:40:24;;;;;;;12.75;6.43;;;;;;;-5.24;62.03;102628.84;6114902;23;20359;-81
2022/11/29 07:42:58;;;;;;;12.50;6.70;;;;;;;-5.54;62.14;102575.16;6162713;23;20021;-82
2022/11/29 07:45:30;;;;;;;12.13;6.60;;;;;;;-5.00;61.51;102638.06;6111771;23;20041;-81
2022/11/29 07:47:57;;;;;;;13.00;6.70;;;;;;;-5.37;62.84;102550.56;6161389;23;20074;-80
2022/11/29 07:50:25;;;;;;;11.02;5.85;;;;;;;-4.79;62.33;102636.72;6162630;23;20466;-83
2022/11/29 07:52:54;;;;;;;13.52;6.30;;;;;;;-5.89;62.46;102412.72;6143406;23;20029;-79
2022/11/29 07:55:23;;;;;;;10.32;5.45;;;;;;;-4.36;62.58;102624.78;6146160;23;20017;-80
2022/11/29 07:57:50;;;;;;;9.65;5.50;;;;;;;-4.03;61.96;102646.56;6120225;23;20039;-81
2022/11/29 08:00:18;;;;;;;9.68;5.00;;;;;;;-3.88;61.86;102631.00;6112434;23;20013;-80
2022/11/29 08:02:46;;;;;;;11.38;6.10;;;;;;;-3.81;62.30;102623.16;6135244;23;20047;-80
2022/11/29 08:05:12;;;;;;;11.40;5.90;;;;;;;-4.13;60.87;102562.50;6112325;23;20017;-80
2022/11/29 08:07:40;;;;;;;10.07;5.55;;;;;;;-3.64;61.41;102629.84;6161220;23;20478;-81
2022/11/29 08:10:12;;;;;;;8.32;4.95;;;;;;;-3.78;60.96;102592.91;6087206;23;20021;-80
2022/11/29 08:12:50;;;;;;;11.57;5.80;;;;;;;-4.03;60.59;102529.53;6114053;23;20048;-82
2022/11/29 08:15:18;;;;;;;11.07;5.72;;;;;;;-3.79;61.25;102537.69;6093938;23;20025;-83
2022/11/29 08:17:44;;;;;;;12.57;6.50;;;;;;;-3.77;60.63;102564.19;6134977;23;20359;-82
2022/11/29 08:20:12;;;;;;;11.82;5.97;;;;;;;-3.57;59.55;102599.16;6108927;23;20024;-78
2022/11/29 08:22:38;;;;;;;9.13;5.63;;;;;;;-3.99;59.63;102571.47;6160375;23;20018;-82
2022/11/29 08:25:07;;;;;;;13.27;6.82;;;;;;;-3.70;60.03;102629.28;6117023;23;20017;-81
2022/11/29 08:27:37;;;;;;;14.73;7.35;;;;;;;-3.87;60.22;102580.22;6118074;23;20048;-83
2022/11/29 08:30:05;;;;;;;11.25;6.38;;;;;;;-3.70;60.55;102575.81;6144895;23;20090;-81
2022/11/29 08:32:33;;;;;;;13.40;6.88;;;;;;;-3.09;60.20;102626.44;6143058;23;20024;-80
2022/11/29 08:34:59;;;;;;;13.77;6.53;;;;;;;-3.00;59.92;102620.41;6171105;23;20073;-79
2022/11/29 08:37:26;;;;;;;14.07;6.88;;;;;;;-3.60;59.69;102521.56;6170901;23;20021;-83
2022/11/29 08:39:52;;;;;;;14.15;6.80;;;;;;;-3.82;59.53;102483.94;6174708;23;20037;-86
2022/11/29 08:42:18;;;;;;;11.77;6.43;;;;;;;-2.89;59.46;102623.19;6099850;23;20017;-82
2022/11/29 08:44:46;;;;;;;13.55;7.82;;;;;;;-3.08;59.13;102558.53;6123835;23;20020;-81
2022/11/29 08:50:03;;;;;;;15.02;8.02;;;;;;;-3.41;57.29;102573.44;6175690;23;20024;-81
2022/11/29 08:55:21;;;;;;;16.17;8.20;;;;;;;-3.10;57.93;102596.63;6149944;23;20021;-82
2022/11/29 08:57:50;;;;;;;18.05;8.38;;;;;;;-2.87;58.72;102621.66;6125572;23;20022;-83
2022/11/29 09:00:20;;;;;;;16.75;7.53;;;;;;;-2.85;57.42;102609.06;6125906;23;20024;-79
2022/11/29 09:02:49;;;;;;;15.32;7.38;;;;;;;-3.95;57.04;102481.91;6151530;23;20029;-81
2022/11/29 09:05:15;;;;;;;14.35;6.95;;;;;;;-3.31;56.80;102625.22;6127372;23;20107;-79
2022/11/29 09:07:42;;;;;;;13.23;6.80;;;;;;;-3.53;57.54;102595.22;6132163;23;20017;-80
2022/11/29 09:10:09;;;;;;;13.82;6.90;;;;;;;-3.42;58.33;102579.28;6127245;23;20024;-82
2022/11/29 09:12:36;;;;;;;15.32;7.55;;;;;;;-3.52;57.31;102602.09;6130467;23;20037;-81
2022/11/29 09:15:05;;;;;;;20.35;7.80;;;;;;;-3.98;58.11;102538.50;6155985;23;20111;-81
2022/11/29 09:17:31;;;;;;;16.63;8.38;;;;;;;-4.32;57.16;102489.56;6181417;23;20021;-81
2022/11/29 09:19:57;;;;;;;18.95;8.70;;;;;;;-4.91;56.55;102381.47;6178012;23;20017;-82
2022/11/29 09:22:24;;;;;;;17.35;9.50;;;;;;;-3.70;57.26;102602.19;6178649;23;20021;-82
2022/11/29 09:24:50;;;;;;;24.05;10.75;;;;;;;-3.38;58.64;102632.28;6127938;23;20065;-85
2022/11/29 09:27:29;;;;;;;26.85;11.23;;;;;;;-3.57;58.87;102498.94;6108208;23;20068;-85
2022/11/29 09:29:55;;;;;;;14.75;7.78;;;;;;;-2.72;57.54;102631.47;6153595;23;20033;-83
2022/11/29 09:32:23;;;;;;;15.63;7.97;;;;;;;-3.60;56.59;102511.38;6155206;23;20017;-84
2022/11/29 09:34:49;;;;;;;16.38;8.65;;;;;;;-4.45;56.39;102384.91;6153757;23;20017;-83
2022/11/29 09:37:15;;;;;;;16.73;8.07;;;;;;;-3.24;57.47;102600.47;6181752;23;20028;-80
2022/11/29 09:39:42;;;;;;;17.35;8.55;;;;;;;-3.25;56.88;102629.22;6132484;23;20021;-85
2022/11/29 09:42:41;;;;;;;19.83;9.85;;;;;;;-3.31;57.37;102615.94;6181554;23;20001;-84
2022/11/29 09:45:31;;;;;;;21.40;10.35;;;;;;;-4.83;57.82;102385.63;6152190;23;20014;-83
2022/11/29 09:48:36;;;;;;;24.88;12.82;;;;;;;-3.26;58.34;102612.16;6177596;23;20017;-81
2022/11/29 09:56:12;;;;;;;19.20;8.63;;;;;;;-3.35;57.16;102607.09;6136166;23;20029;-85
2022/11/29 09:59:00;;;;;;;19.05;9.70;;;;;;;-3.49;57.62;102575.28;6117622;23;20037;-86
2022/11/29 10:02:23;;;;;;;20.58;9.57;;;;;;;-4.24;57.82;102473.38;6137808;23;20022;-83
2022/11/29 10:05:14;;;;;;;20.98;9.20;;;;;;;-3.99;57.50;102496.00;6088180;23;20041;-84
2022/11/29 10:08:27;;;;;;;28.20;10.70;;;;;;;-3.73;58.59;102474.63;6113221;23;20018;-83
2022/11/29 10:11:13;;;;;;;18.95;9.35;;;;;;;-3.76;56.92;102456.53;6139652;23;20121;-84
2022/11/29 10:13:49;;;;;;;23.83;10.15;;;;;;;-3.78;57.48;102486.03;6142686;23;20017;-83
2022/11/29 10:16:49;;;;;;;16.42;8.38;;;;;;;-3.36;56.12;102590.03;6170253;23;20013;-82
2022/11/29 10:19:44;;;;;;;19.98;9.02;;;;;;;-3.42;57.71;102602.19;6173267;23;20018;-83
2022/11/29 10:22:31;;;;;;;17.67;8.88;;;;;;;-3.05;58.13;102628.53;6151039;23;20443;-84
2022/11/29 10:25:02;;;;;;;25.20;9.43;;;;;;;-2.85;57.07;102603.97;6168107;23;20089;-85
2022/11/29 10:27:31;;;;;;;21.63;8.73;;;;;;;-3.28;56.82;102555.06;6116700;23;20018;-83
2022/11/29 10:29:59;;;;;;;17.75;8.73;;;;;;;-3.59;57.23;102529.38;6140243;23;20304;-84
2022/11/29 10:32:52;;;;;;;;;;;;;;;;;;;;;
2022/11/29 10:36:16;;;;;;;17.75;9.35;;;;;;;-3.86;57.81;102467.50;6146381;23;20522;-84
2022/11/29 10:39:24;;;;;;;22.60;9.90;;;;;;;-2.83;58.19;102559.13;6177585;23;20012;-81
2022/11/29 10:42:01;;;;;;;16.40;8.90;;;;;;;-3.08;56.52;102528.88;6182703;23;19997;-82
2022/11/29 10:44:30;;;;;;;19.30;8.98;;;;;;;-3.28;56.63;102547.44;6182289;23;19993;-81
2022/11/29 10:47:04;;;;;;;20.25;9.57;;;;;;;-3.11;55.49;102611.78;6151258;23;20021;-83
2022/11/29 10:50:05;;;;;;;16.83;8.60;;;;;;;-3.53;55.31;102592.69;6107681;23;19998;-83
2022/11/29 10:52:36;;;;;;;16.27;7.97;;;;;;;-5.25;55.08;102369.00;6149860;23;20051;-82
2022/11/29 10:56:06;;;;;;;19.90;8.02;;;;;;;-4.16;56.17;102603.78;6124325;23;20021;-82
2022/11/29 10:59:08;;;;;;;17.52;9.10;;;;;;;-3.99;57.85;102607.06;6110693;23;20282;-83
2022/11/29 11:02:13;;;;;;;28.75;11.88;;;;;;;-5.42;56.78;102346.16;6166935;23;20017;-84
2022/11/29 11:05:25;;;;;;;32.22;12.27;;;;;;;-5.13;57.27;102366.75;6108038;23;20020;-83
2022/11/29 11:08:04;;;;;;;31.20;12.27;;;;;;;-4.38;56.37;102534.75;6170129;23;20022;-83
2022/11/29 11:10:30;;;;;;;28.20;12.52;;;;;;;-4.69;57.52;102447.94;6160895;23;20021;-83
2022/11/29 11:13:07;;;;;;;32.70;12.68;;;;;;;-4.10;57.68;102527.19;6137447;23;20017;-83
2022/11/29 11:15:52;;;;;;;32.35;12.75;;;;;;;-4.28;57.99;102445.84;6129688;23;20028;-84
2022/11/29 11:18:27;;;;;;;25.17;11.40;;;;;;;-3.34;58.08;102580.00;6135283;23;20017;-84
2022/11/29 11:21:07;;;;;;;27.83;12.27;;;;;;;-3.53;56.52;102621.56;6139698;23;20021;-85
2022/11/29 11:23:53;;;;;;;27.88;13.73;;;;;;;-3.74;56.39;102595.00;6140996;23;20171;-82
2022/11/29 11:26:21;;;;;;;32.78;12.98;;;;;;;-5.29;56.52;102359.28;6139080;23;20017;-84
2022/11/29 11:28:56;;;;;;;25.13;11.75;;;;;;;-4.13;57.33;102609.19;6138512;23;20028;-82
2022/11/29 11:31:39;;;;;;;27.27;12.43;;;;;;;-5.17;57.26;102438.28;6140214;23;20021;-82
2022/11/29 11:34:25;;;;;;;27.30;12.07;;;;;;;-4.15;57.58;102613.22;6149841;23;20088;-82
2022/11/29 11:37:13;;;;;;;36.70;15.88;;;;;;;-4.28;57.56;102607.72;6147580;23;20044;-83
2022/11/29 11:40:03;;;;;;;47.92;20.85;;;;;;;-4.63;56.64;102611.19;6128550;23;20018;-83
2022/11/29 11:42:35;;;;;;;35.70;16.77;;;;;;;-4.57;57.59;102621.94;6147858;23;20081;-82
2022/11/29 11:45:11;;;;;;;31.63;14.50;;;;;;;-4.60;58.01;102619.09;6117601;23;20017;-83
2022/11/29 11:47:59;;;;;;;21.42;10.25;;;;;;;-4.99;56.76;102568.72;6137623;23;20021;-84
2022/11/29 11:50:53;;;;;;;19.75;9.75;;;;;;;-6.10;57.63;102365.84;6114225;23;20017;-83
2022/11/29 11:53:29;;;;;;;22.25;9.55;;;;;;;-4.43;57.95;102647.81;6112601;23;20044;-81
2022/11/29 11:56:02;;;;;;;23.92;11.05;;;;;;;-4.25;57.88;102614.00;6147599;23;20023;-84
2022/11/29 11:58:46;;;;;;;21.92;9.35;;;;;;;-5.31;57.19;102442.00;6124493;23;20142;-84
2022/11/29 12:01:24;;;;;;;21.42;10.85;;;;;;;-4.30;57.65;102615.19;6145121;23;20009;-83
2022/11/29 12:04:02;;;;;;;19.15;9.15;;;;;;;-4.60;57.44;102608.94;6111548;23;20009;-84
2022/11/29 12:06:51;;;;;;;19.58;9.20;;;;;;;-4.47;57.29;102621.19;6138892;23;20363;-81
2022/11/29 12:09:43;;;;;;;21.02;9.15;;;;;;;-4.47;57.68;102633.91;6094024;23;20466;-85
2022/11/29 12:12:30;;;;;;;22.63;9.18;;;;;;;-4.72;57.32;102622.97;6143004;23;20036;-83
2022/11/29 12:15:17;;;;;;;20.13;9.18;;;;;;;-4.86;56.28;102629.25;6135595;23;20407;-84
2022/11/29 12:21:33;;;;;;;24.13;9.13;;;;;;;-5.58;56.56;102578.13;6162787;23;20040;-83
2022/11/29 12:24:28;;;;;;;23.50;10.13;;;;;;;-6.20;57.48;102508.53;6118731;23;20364;-85
2022/11/29 12:27:01;;;;;;;26.00;10.20;;;;;;;-6.22;58.23;102460.22;6115923;23;20068;-82
2022/11/29 12:29:30;;;;;;;22.63;10.02;;;;;;;-6.30;58.02;102468.66;6141478;23;20021;-83